createdAt,value
2022-12-03T00:01:10.672Z,11.40
2022-12-03T00:06:15.581Z,11.40
2022-12-03T00:11:18.926Z,11.40
2022-12-03T00:16:22.299Z,11.40
2022-12-03T00:21:27.010Z,11.40
2022-12-03T00:26:30.412Z,11.40
2022-12-03T00:31:33.991Z,11.40
2022-12-03T00:36:39.797Z,11.40
2022-12-03T00:41:43.754Z,11.40
2022-12-03T00:46:47.297Z,11.40
2022-12-03T00:51:52.536Z,11.40
2022-12-03T00:56:56.380Z,11.40
2022-12-03T01:01:59.956Z,11.50
2022-12-03T01:07:04.947Z,11.50
2022-12-03T01:12:08.276Z,11.40
2022-12-03T01:17:12.459Z,11.40
2022-12-03T01:22:17.128Z,11.40
2022-12-03T01:27:20.594Z,11.40
2022-12-03T01:32:24.069Z,11.40
2022-12-03T01:37:29.129Z,11.40
2022-12-03T01:42:36.596Z,11.40
2022-12-03T01:47:40.018Z,11.40
2022-12-03T01:52:45.366Z,11.30
2022-12-03T01:57:51.532Z,11.30
2022-12-03T02:02:57.154Z,11.30
2022-12-03T02:08:02.098Z,11.30
2022-12-03T02:13:08.595Z,11.30
2022-12-03T02:18:12.068Z,11.30
2022-12-03T02:23:24.995Z,11.30
2022-12-03T02:28:29.758Z,11.30
2022-12-03T02:33:33.612Z,11.30
2022-12-03T02:38:37.467Z,11.30
2022-12-03T02:43:42.109Z,11.30
2022-12-03T02:48:45.519Z,11.40
2022-12-03T02:53:51.647Z,11.40
2022-12-03T02:58:59.930Z,11.40
2022-12-03T03:04:04.809Z,11.40
2022-12-03T03:09:08.304Z,11.40
2022-12-03T03:14:13.145Z,11.40
2022-12-03T03:19:16.503Z,11.40
2022-12-03T03:24:20.193Z,11.40
2022-12-03T03:29:25.170Z,11.40
2022-12-03T03:34:29.196Z,11.40
2022-12-03T03:39:32.535Z,11.40
2022-12-03T03:44:37.540Z,11.40
2022-12-03T03:49:41.064Z,11.40
2022-12-03T03:54:44.596Z,11.50
2022-12-03T03:59:49.321Z,11.40
2022-12-03T04:04:53.363Z,11.40
2022-12-03T04:09:56.900Z,11.50
2022-12-03T04:15:01.675Z,11.50
2022-12-03T04:20:05.466Z,11.50
2022-12-03T04:25:28.558Z,11.50
2022-12-03T04:30:33.274Z,11.50
2022-12-03T04:35:45.747Z,11.50
2022-12-03T04:41:05.003Z,11.50
2022-12-03T04:46:09.864Z,11.50
2022-12-03T04:51:13.255Z,11.50
2022-12-03T04:56:16.635Z,11.50
2022-12-03T05:01:21.911Z,11.50
2022-12-03T05:06:25.454Z,11.50
2022-12-03T05:11:28.980Z,11.50
2022-12-03T05:16:33.692Z,11.50
2022-12-03T05:21:52.160Z,11.50
2022-12-03T05:26:55.423Z,11.50
2022-12-03T05:32:00.124Z,11.50
2022-12-03T05:37:03.521Z,11.50
2022-12-03T05:42:24.689Z,11.40
2022-12-03T05:47:29.537Z,11.40
2022-12-03T05:52:32.750Z,11.40
2022-12-03T05:57:36.329Z,11.40
2022-12-03T06:02:41.288Z,11.40
2022-12-03T06:07:45.184Z,11.40
2022-12-03T06:12:48.988Z,11.40
2022-12-03T06:17:53.597Z,11.40
2022-12-03T06:22:56.908Z,11.40
2022-12-03T06:28:00.131Z,11.40
2022-12-03T06:33:05.129Z,11.40
2022-12-03T06:38:08.494Z,11.40
2022-12-03T06:43:11.885Z,11.40
2022-12-03T06:48:16.819Z,11.40
2022-12-03T06:53:20.329Z,11.40
2022-12-03T06:58:23.570Z,11.40
2022-12-03T07:03:28.247Z,11.40
2022-12-03T07:08:31.544Z,11.40
2022-12-03T07:13:34.828Z,11.40
2022-12-03T07:18:39.472Z,11.40
2022-12-03T07:23:42.794Z,11.40
2022-12-03T07:28:46.768Z,11.40
2022-12-03T07:33:51.540Z,11.40
2022-12-03T07:38:54.779Z,11.40
2022-12-03T07:43:58.206Z,11.40
2022-12-03T07:49:03.610Z,11.40
2022-12-03T07:54:07.768Z,11.50
2022-12-03T07:59:11.022Z,11.50
2022-12-03T08:04:18.923Z,11.60
2022-12-03T08:09:22.750Z,11.50
2022-12-03T08:14:26.458Z,11.60
2022-12-03T08:19:31.116Z,11.50
2022-12-03T08:24:34.358Z,11.60
2022-12-03T08:29:37.628Z,11.60
2022-12-03T08:34:43.514Z,11.50
2022-12-03T08:39:48.596Z,11.60
2022-12-03T08:44:53.010Z,11.60
2022-12-03T08:50:03.082Z,11.60
2022-12-03T08:55:35.358Z,11.60
2022-12-03T09:00:38.787Z,11.60
2022-12-03T09:05:43.517Z,11.70
2022-12-03T09:10:46.794Z,11.70
2022-12-03T09:15:50.136Z,11.70
2022-12-03T09:20:55.721Z,11.80
2022-12-03T09:25:59.043Z,11.80
2022-12-03T09:31:02.419Z,11.80
2022-12-03T09:36:07.943Z,11.80
2022-12-03T09:41:11.418Z,11.80
2022-12-03T09:46:15.148Z,11.80
2022-12-03T09:51:20.699Z,11.90
2022-12-03T09:56:24.896Z,11.90
2022-12-03T10:01:30.592Z,11.90
2022-12-03T10:06:35.605Z,12.00
2022-12-03T10:11:40.201Z,12.00
2022-12-03T10:16:43.860Z,12.00
2022-12-03T10:21:48.678Z,12.10
2022-12-03T10:26:53.519Z,12.10
2022-12-03T10:31:59.148Z,12.20
2022-12-03T10:37:15.726Z,12.20
2022-12-03T10:42:20.752Z,12.20
2022-12-03T10:47:25.743Z,12.30
2022-12-03T10:52:30.711Z,12.40
2022-12-03T10:57:34.078Z,12.40
2022-12-03T11:02:37.521Z,12.40
2022-12-03T11:07:43.992Z,12.50
2022-12-03T11:13:20.757Z,12.60
2022-12-03T11:19:02.473Z,12.70
2022-12-03T11:24:21.757Z,12.80
2022-12-03T11:29:53.092Z,13.00
2022-12-03T11:34:56.483Z,13.00
2022-12-03T11:40:23.363Z,13.00
2022-12-03T11:45:35.564Z,13.00
2022-12-03T11:50:41.528Z,13.00
2022-12-03T11:55:48.886Z,13.00
2022-12-03T12:00:53.511Z,13.00
2022-12-03T12:06:08.452Z,12.90
2022-12-03T12:11:20.737Z,12.90
2022-12-03T12:16:46.092Z,12.90
2022-12-03T12:21:50.236Z,12.90
2022-12-03T12:26:55.154Z,12.90
2022-12-03T12:32:12.587Z,12.80
2022-12-03T12:37:20.621Z,12.80
2022-12-03T12:42:32.769Z,12.80
2022-12-03T12:47:37.252Z,12.70
2022-12-03T12:52:49.792Z,12.70
2022-12-03T12:57:56.373Z,12.70
2022-12-03T13:03:02.732Z,12.60
2022-12-03T13:08:21.467Z,12.60
2022-12-03T13:13:43.585Z,12.60
2022-12-03T13:18:49.704Z,12.60
2022-12-03T13:23:55.341Z,12.60
2022-12-03T13:29:03.042Z,12.60
2022-12-03T13:34:15.374Z,12.60
2022-12-03T13:39:22.569Z,12.60
2022-12-03T13:44:30.965Z,12.50
2022-12-03T13:49:36.152Z,12.50
2022-12-03T13:54:40.583Z,12.50
2022-12-03T13:59:45.256Z,12.50
2022-12-03T14:04:48.545Z,12.50
2022-12-03T14:09:52.649Z,12.50
2022-12-03T14:14:57.892Z,12.50
2022-12-03T14:20:01.891Z,12.50
2022-12-03T14:25:07.183Z,12.50
2022-12-03T14:30:13.075Z,12.50
2022-12-03T14:35:16.497Z,12.60
2022-12-03T14:40:22.248Z,12.60
2022-12-03T14:45:28.706Z,12.60
2022-12-03T14:50:32.805Z,12.70
2022-12-03T14:55:36.137Z,12.70
2022-12-03T15:00:40.851Z,12.70
2022-12-03T15:05:44.241Z,12.60
2022-12-03T15:10:47.491Z,12.70
2022-12-03T15:15:52.226Z,12.70
2022-12-03T15:20:55.550Z,12.60
2022-12-03T15:25:58.940Z,12.60
2022-12-03T15:31:04.936Z,12.70
2022-12-03T15:36:09.527Z,12.60
2022-12-03T15:41:24.540Z,12.60
2022-12-03T15:46:29.940Z,12.60
2022-12-03T15:51:34.382Z,12.60
2022-12-03T15:56:38.229Z,12.70
2022-12-03T16:01:43.938Z,12.60
2022-12-03T16:06:47.683Z,12.70
2022-12-03T16:11:52.121Z,12.70
2022-12-03T16:16:59.389Z,12.70
2022-12-03T16:22:03.113Z,12.70
2022-12-03T16:27:08.302Z,12.80
2022-12-03T16:32:13.796Z,12.80
2022-12-03T16:37:17.482Z,12.80
2022-12-03T16:42:25.195Z,12.80
2022-12-03T16:47:34.136Z,12.90
2022-12-03T16:52:37.916Z,12.90
2022-12-03T16:57:43.229Z,12.90
2022-12-03T17:44:56.272Z,13.00
2022-12-03T17:50:03.052Z,13.10
2022-12-03T17:55:12.903Z,13.10
2022-12-03T18:00:23.001Z,13.10
2022-12-03T18:05:27.355Z,13.10
2022-12-03T18:10:31.316Z,13.10
2022-12-03T18:15:36.362Z,13.10
2022-12-03T18:20:40.638Z,13.10
2022-12-03T18:25:44.092Z,13.10
2022-12-03T18:30:52.920Z,13.10
2022-12-03T18:35:59.044Z,13.20
2022-12-03T18:41:03.754Z,13.20
2022-12-03T18:46:45.197Z,13.20
2022-12-03T18:51:40.930Z,13.20
2022-12-03T18:56:45.518Z,13.20
2022-12-03T19:01:54.353Z,13.30
2022-12-03T19:06:59.247Z,13.30
2022-12-03T19:12:03.918Z,13.20
2022-12-03T19:17:09.925Z,13.20
2022-12-03T19:22:14.642Z,13.20
2022-12-03T19:27:20.248Z,13.10
2022-12-03T19:32:27.041Z,13.10
2022-12-03T19:37:35.464Z,13.10
2022-12-03T19:42:41.022Z,13.10
2022-12-03T19:47:49.186Z,13.10
2022-12-03T19:52:54.530Z,13.10
2022-12-03T19:58:00.775Z,13.00
2022-12-03T20:03:07.459Z,13.00
2022-12-03T20:08:12.922Z,13.00
2022-12-03T20:13:17.141Z,13.00
2022-12-03T20:18:23.113Z,13.00
2022-12-03T20:23:28.133Z,12.90
2022-12-03T20:28:33.391Z,12.90
2022-12-03T20:33:41.351Z,12.90
2022-12-03T20:38:47.744Z,12.90
2022-12-03T20:43:56.067Z,12.40
2022-12-03T20:49:21.719Z,12.80
2022-12-03T20:54:27.272Z,13.00
2022-12-03T20:59:33.811Z,13.10
2022-12-03T21:04:41.089Z,13.10
2022-12-03T21:09:48.623Z,13.10
2022-12-03T21:14:57.677Z,13.10
2022-12-03T21:20:03.353Z,13.10
2022-12-03T21:25:07.367Z,13.00
2022-12-03T21:30:12.961Z,13.00
2022-12-03T21:35:19.946Z,13.00
2022-12-03T21:40:24.162Z,13.00
2022-12-03T21:45:27.771Z,13.00
2022-12-03T21:50:37.832Z,13.00
2022-12-03T21:55:43.159Z,12.90
2022-12-03T22:00:51.485Z,13.00
2022-12-03T22:05:56.927Z,13.00
2022-12-03T22:11:01.005Z,13.00
2022-12-03T22:16:09.364Z,13.00
2022-12-03T22:21:17.336Z,13.00
2022-12-03T22:26:21.155Z,13.00
2022-12-03T22:31:24.597Z,13.00
2022-12-03T22:36:29.391Z,13.00
2022-12-03T22:41:32.770Z,13.00
2022-12-03T22:46:36.575Z,13.00
2022-12-03T22:51:41.599Z,13.00
2022-12-03T22:56:44.863Z,13.00
2022-12-03T23:01:48.555Z,13.00
2022-12-03T23:06:53.241Z,13.00
2022-12-03T23:11:56.542Z,13.00
2022-12-03T23:17:00.074Z,13.10
2022-12-03T23:22:04.896Z,13.10
2022-12-03T23:27:08.265Z,13.10
2022-12-03T23:32:11.616Z,13.10
2022-12-03T23:37:16.376Z,13.10
2022-12-03T23:42:19.662Z,13.10
2022-12-03T23:47:22.944Z,13.10
2022-12-03T23:52:27.647Z,13.10
2022-12-03T23:57:31.003Z,13.10
